createdAt,value
2023-03-25T00:01:32.924Z,3.70
2023-03-25T00:04:01.671Z,3.70
2023-03-25T00:06:28.611Z,3.70
2023-03-25T00:08:56.258Z,3.70
2023-03-25T00:11:23.821Z,3.70
2023-03-25T00:13:50.820Z,3.70
2023-03-25T00:16:19.228Z,3.70
2023-03-25T00:18:48.009Z,3.70
2023-03-25T00:21:15.052Z,3.60
2023-03-25T00:23:42.493Z,3.60
2023-03-25T00:26:09.666Z,3.60
2023-03-25T00:28:38.231Z,3.60
2023-03-25T00:31:13.504Z,3.60
2023-03-25T00:33:43.759Z,3.60
2023-03-25T00:36:13.566Z,3.60
2023-03-25T00:38:43.220Z,3.60
2023-03-25T00:41:11.535Z,3.60
2023-03-25T00:43:39.208Z,3.50
2023-03-25T00:46:06.431Z,3.50
2023-03-25T00:48:33.329Z,3.50
2023-03-25T00:51:07.166Z,3.50
2023-03-25T00:53:34.672Z,3.40
2023-03-25T00:56:02.674Z,3.40
2023-03-25T00:58:29.714Z,3.40
2023-03-25T01:00:57.740Z,3.30
2023-03-25T01:03:25.863Z,3.40
2023-03-25T01:05:54.822Z,3.30
2023-03-25T01:08:25.785Z,3.30
2023-03-25T01:10:56.581Z,3.30
2023-03-25T01:13:24.534Z,3.30
2023-03-25T01:15:51.612Z,3.20
2023-03-25T01:18:18.886Z,3.30
2023-03-25T01:20:45.794Z,3.30
2023-03-25T01:23:12.750Z,3.20
2023-03-25T01:25:39.940Z,3.30
2023-03-25T01:28:07.748Z,3.30
2023-03-25T01:30:34.610Z,3.30
2023-03-25T01:33:01.574Z,3.30
2023-03-25T01:35:28.540Z,3.20
2023-03-25T01:37:55.452Z,3.20
2023-03-25T01:40:24.343Z,3.30
2023-03-25T01:42:51.658Z,3.20
2023-03-25T01:45:19.371Z,3.20
2023-03-25T01:47:48.412Z,3.20
2023-03-25T01:50:17.511Z,3.20
2023-03-25T01:52:51.079Z,3.10
2023-03-25T01:55:20.479Z,3.10
2023-03-25T01:57:48.412Z,3.10
2023-03-25T02:00:16.364Z,3.20
2023-03-25T02:02:45.779Z,3.10
2023-03-25T02:05:21.669Z,3.20
2023-03-25T02:07:49.912Z,3.10
2023-03-25T02:10:18.118Z,3.20
2023-03-25T02:12:45.997Z,3.20
2023-03-25T02:15:16.364Z,3.20
2023-03-25T02:18:13.452Z,3.20
2023-03-25T02:21:18.898Z,3.20
2023-03-25T02:24:00.345Z,3.20
2023-03-25T02:26:59.928Z,3.10
2023-03-25T02:29:54.117Z,3.10
2023-03-25T02:32:32.669Z,3.10
2023-03-25T02:35:27.196Z,3.10
2023-03-25T02:38:14.692Z,3.10
2023-03-25T02:41:07.898Z,3.10
2023-03-25T02:44:12.157Z,3.10
2023-03-25T02:46:44.746Z,3.10
2023-03-25T02:49:21.681Z,3.10
2023-03-25T02:52:08.388Z,3.10
2023-03-25T02:54:39.346Z,3.20
2023-03-25T02:57:08.325Z,3.20
2023-03-25T02:59:38.394Z,3.20
2023-03-25T03:02:11.583Z,3.20
2023-03-25T03:04:50.528Z,3.10
2023-03-25T03:07:31.751Z,3.10
2023-03-25T03:10:19.349Z,3.10
2023-03-25T03:12:58.845Z,3.00
2023-03-25T03:16:06.850Z,3.00
2023-03-25T03:18:50.410Z,3.00
2023-03-25T03:21:52.287Z,3.00
2023-03-25T03:24:28.483Z,3.00
2023-03-25T03:27:34.228Z,3.10
2023-03-25T03:30:20.773Z,3.10
2023-03-25T03:33:04.118Z,3.20
2023-03-25T03:35:38.388Z,3.10
2023-03-25T03:38:12.295Z,3.20
2023-03-25T03:40:43.623Z,3.10
2023-03-25T03:43:40.618Z,3.10
2023-03-25T03:46:26.392Z,3.10
2023-03-25T03:48:57.545Z,3.00
2023-03-25T03:51:29.392Z,3.00
2023-03-25T03:54:06.181Z,3.00
2023-03-25T03:56:46.526Z,3.00
2023-03-25T03:59:21.103Z,3.00
2023-03-25T04:01:59.670Z,3.00
2023-03-25T04:04:27.147Z,3.00
2023-03-25T04:07:39.170Z,3.00
2023-03-25T04:10:19.087Z,3.00
2023-03-25T04:12:52.704Z,3.00
2023-03-25T04:15:19.862Z,3.10
2023-03-25T04:17:48.239Z,3.00
2023-03-25T04:20:23.776Z,3.00
2023-03-25T04:22:52.446Z,3.00
2023-03-25T04:25:21.696Z,3.00
2023-03-25T04:27:49.185Z,3.00
2023-03-25T04:30:18.103Z,3.00
2023-03-25T04:32:49.239Z,3.00
2023-03-25T04:35:19.548Z,3.00
2023-03-25T04:37:49.062Z,3.00
2023-03-25T04:40:18.932Z,3.00
2023-03-25T04:42:46.825Z,3.00
2023-03-25T04:45:17.024Z,3.00
2023-03-25T04:47:47.491Z,3.00
2023-03-25T04:50:29.532Z,3.00
2023-03-25T04:53:02.613Z,3.00
2023-03-25T04:55:30.018Z,3.00
2023-03-25T04:57:57.131Z,3.00
2023-03-25T05:00:25.416Z,2.90
2023-03-25T05:02:54.967Z,2.90
2023-03-25T05:05:24.341Z,2.90
2023-03-25T05:07:54.011Z,3.00
2023-03-25T05:10:23.579Z,2.90
2023-03-25T05:12:51.302Z,2.90
2023-03-25T05:15:18.285Z,2.90
2023-03-25T05:17:45.849Z,3.00
2023-03-25T05:20:14.584Z,3.00
2023-03-25T05:22:42.114Z,3.00
2023-03-25T05:25:10.828Z,3.00
2023-03-25T05:27:39.031Z,3.00
2023-03-25T05:30:07.145Z,3.00
2023-03-25T05:32:34.171Z,3.00
2023-03-25T05:35:02.319Z,3.00
2023-03-25T05:37:29.277Z,2.90
2023-03-25T05:39:56.516Z,2.90
2023-03-25T05:42:23.890Z,2.90
2023-03-25T05:44:51.575Z,2.90
2023-03-25T05:47:26.306Z,2.90
2023-03-25T05:49:54.393Z,2.90
2023-03-25T05:52:24.708Z,2.80
2023-03-25T05:54:52.083Z,2.80
2023-03-25T05:57:19.118Z,2.80
2023-03-25T05:59:46.067Z,2.90
2023-03-25T06:02:15.674Z,2.90
2023-03-25T06:04:43.715Z,2.90
2023-03-25T06:07:20.071Z,2.90
2023-03-25T06:09:48.619Z,2.90
2023-03-25T06:12:23.155Z,2.90
2023-03-25T06:14:54.239Z,2.90
2023-03-25T06:17:24.765Z,2.80
2023-03-25T06:19:52.350Z,2.90
2023-03-25T06:22:22.499Z,2.90
2023-03-25T06:24:49.357Z,2.90
2023-03-25T06:27:18.514Z,2.80
2023-03-25T06:29:46.329Z,2.90
2023-03-25T06:32:14.747Z,2.90
2023-03-25T06:34:45.151Z,2.90
2023-03-25T06:37:12.145Z,2.90
2023-03-25T06:39:39.011Z,2.80
2023-03-25T06:42:07.388Z,2.80
2023-03-25T06:44:34.352Z,2.90
2023-03-25T06:47:02.619Z,2.90
2023-03-25T06:49:29.773Z,3.00
2023-03-25T06:51:56.656Z,2.90
2023-03-25T06:54:23.576Z,2.90
2023-03-25T06:56:50.587Z,2.90
2023-03-25T06:59:17.578Z,2.80
2023-03-25T07:01:44.611Z,2.80
2023-03-25T07:04:11.509Z,2.80
2023-03-25T07:06:38.422Z,2.80
2023-03-25T07:09:05.460Z,2.90
2023-03-25T07:11:33.402Z,3.00
2023-03-25T07:14:00.393Z,3.10
2023-03-25T07:16:27.638Z,3.20
2023-03-25T07:18:59.065Z,3.10
2023-03-25T07:21:26.534Z,3.10
2023-03-25T07:23:53.715Z,3.10
2023-03-25T07:26:20.748Z,3.10
2023-03-25T07:28:51.000Z,3.00
2023-03-25T07:31:17.919Z,3.10
2023-03-25T07:33:44.872Z,3.10
2023-03-25T07:36:13.013Z,3.20
2023-03-25T07:38:40.772Z,3.10
2023-03-25T07:41:12.239Z,3.20
2023-03-25T07:43:39.868Z,3.20
2023-03-25T07:46:07.210Z,3.20
2023-03-25T07:48:34.087Z,3.20
2023-03-25T07:51:01.048Z,3.10
2023-03-25T07:53:27.935Z,3.10
2023-03-25T07:55:54.891Z,3.10
2023-03-25T07:58:21.892Z,3.20
2023-03-25T08:00:48.780Z,3.10
2023-03-25T08:03:16.203Z,3.10
2023-03-25T08:05:47.905Z,3.10
2023-03-25T08:08:15.476Z,3.10
2023-03-25T08:10:44.014Z,3.20
2023-03-25T08:13:12.216Z,3.20
2023-03-25T08:15:40.498Z,3.20
2023-03-25T08:18:07.825Z,3.20
2023-03-25T08:20:35.968Z,3.30
2023-03-25T08:23:03.161Z,3.40
2023-03-25T08:25:31.251Z,3.30
2023-03-25T08:27:58.167Z,3.40
2023-03-25T08:30:25.103Z,3.40
2023-03-25T08:32:54.789Z,3.50
2023-03-25T08:35:25.047Z,3.40
2023-03-25T08:37:52.100Z,3.50
2023-03-25T08:40:19.988Z,3.60
2023-03-25T08:42:47.081Z,3.50
2023-03-25T08:45:15.614Z,3.60
2023-03-25T08:47:44.042Z,3.60
2023-03-25T08:50:11.494Z,3.60
2023-03-25T08:52:38.600Z,3.60
2023-03-25T08:55:11.044Z,3.60
2023-03-25T08:57:39.100Z,3.60
2023-03-25T09:00:13.242Z,3.70
2023-03-25T09:02:42.233Z,3.60
2023-03-25T09:05:10.986Z,3.70
2023-03-25T09:07:38.362Z,3.70
2023-03-25T09:10:06.312Z,3.70
2023-03-25T09:12:33.371Z,3.70
2023-03-25T09:15:00.242Z,3.80
2023-03-25T09:17:27.531Z,3.80
2023-03-25T09:19:55.494Z,3.90
2023-03-25T09:22:23.886Z,3.90
2023-03-25T09:24:50.851Z,3.90
2023-03-25T09:27:17.911Z,4.00
2023-03-25T09:29:44.770Z,4.10
2023-03-25T09:32:11.850Z,4.10
2023-03-25T09:34:39.596Z,4.10
2023-03-25T09:37:06.515Z,4.20
2023-03-25T09:39:33.432Z,4.20
2023-03-25T09:42:32.966Z,4.30
2023-03-25T09:45:17.835Z,4.30
2023-03-25T09:48:15.660Z,4.30
2023-03-25T09:50:44.801Z,4.40
2023-03-25T09:53:30.575Z,4.50
2023-03-25T09:55:58.457Z,4.50
2023-03-25T09:58:30.687Z,4.50
2023-03-25T10:01:12.511Z,4.50
2023-03-25T10:04:02.524Z,4.60
2023-03-25T10:06:32.606Z,4.60
2023-03-25T10:09:14.144Z,4.80
2023-03-25T10:12:15.845Z,4.80
2023-03-25T10:15:10.713Z,4.90
2023-03-25T10:18:04.282Z,5.00
2023-03-25T10:21:00.257Z,5.10
2023-03-25T10:23:44.533Z,5.20
2023-03-25T10:26:19.811Z,5.20
2023-03-25T10:29:01.364Z,5.30
2023-03-25T10:31:32.150Z,5.40
2023-03-25T10:34:05.436Z,5.50
2023-03-25T10:36:36.493Z,5.50
2023-03-25T10:39:11.406Z,5.50
2023-03-25T10:41:41.029Z,5.50
2023-03-25T10:44:11.838Z,5.60
2023-03-25T10:46:58.773Z,5.70
2023-03-25T10:49:29.557Z,5.60
2023-03-25T10:51:59.371Z,5.50
2023-03-25T10:54:31.958Z,5.50
2023-03-25T10:57:11.113Z,5.60
2023-03-25T10:59:45.468Z,5.70
2023-03-25T11:02:27.826Z,5.80
2023-03-25T11:05:01.536Z,5.80
2023-03-25T11:07:36.127Z,5.80
2023-03-25T11:10:22.981Z,5.90
2023-03-25T11:12:52.528Z,5.90
2023-03-25T11:15:23.982Z,5.90
2023-03-25T11:18:08.743Z,5.90
2023-03-25T11:20:39.095Z,5.80
2023-03-25T11:23:24.690Z,5.80
2023-03-25T11:25:54.537Z,5.70
2023-03-25T11:28:44.157Z,5.70
2023-03-25T11:31:17.250Z,5.80
2023-03-25T11:34:03.611Z,5.80
2023-03-25T11:36:33.024Z,5.90
2023-03-25T11:39:04.479Z,6.00
2023-03-25T11:41:34.142Z,6.10
2023-03-25T11:44:02.431Z,6.20
2023-03-25T11:46:29.684Z,6.30
2023-03-25T11:48:56.704Z,6.40
2023-03-25T11:51:28.528Z,6.50
2023-03-25T11:53:59.626Z,6.70
2023-03-25T11:56:41.333Z,6.80
2023-03-25T11:59:17.654Z,7.00
2023-03-25T12:01:49.014Z,7.10
2023-03-25T12:04:22.472Z,7.30
2023-03-25T12:07:01.633Z,7.60
2023-03-25T12:09:31.694Z,7.80
2023-03-25T12:12:19.360Z,8.00
2023-03-25T12:15:15.703Z,8.10
2023-03-25T12:17:49.669Z,8.30
2023-03-25T12:20:52.504Z,8.30
2023-03-25T12:23:54.562Z,8.20
2023-03-25T12:26:26.878Z,7.90
2023-03-25T12:29:30.234Z,7.70
2023-03-25T12:32:18.652Z,7.70
2023-03-25T12:35:04.219Z,7.60
2023-03-25T12:37:36.689Z,7.70
2023-03-25T12:40:25.163Z,7.80
2023-03-25T12:43:11.473Z,7.70
2023-03-25T12:45:38.236Z,7.70
2023-03-25T12:48:34.465Z,7.60
2023-03-25T12:51:13.397Z,7.60
2023-03-25T12:53:46.174Z,7.60
2023-03-25T12:56:30.005Z,7.40
2023-03-25T12:59:19.778Z,7.50
2023-03-25T13:02:11.352Z,7.60
2023-03-25T13:05:07.400Z,7.70
2023-03-25T13:07:44.017Z,7.70
2023-03-25T13:10:21.390Z,7.70
2023-03-25T13:12:57.067Z,7.70
2023-03-25T13:15:31.139Z,7.70
2023-03-25T13:18:11.205Z,7.60
2023-03-25T13:20:43.185Z,7.60
2023-03-25T13:23:17.734Z,7.50
2023-03-25T13:25:53.234Z,7.50
2023-03-25T13:28:26.221Z,7.50
2023-03-25T13:30:54.363Z,7.50
2023-03-25T13:33:36.088Z,7.50
2023-03-25T13:36:28.362Z,7.60
2023-03-25T13:39:05.234Z,7.60
2023-03-25T13:41:41.150Z,7.50
2023-03-25T13:44:16.961Z,7.60
2023-03-25T13:46:49.905Z,7.50
2023-03-25T13:49:35.469Z,7.60
2023-03-25T13:52:02.629Z,7.60
2023-03-25T13:54:43.303Z,7.60
2023-03-25T13:57:34.451Z,7.60
2023-03-25T14:00:27.941Z,7.60
2023-03-25T14:03:18.599Z,7.60
2023-03-25T14:05:57.079Z,7.60
2023-03-25T14:08:57.622Z,7.60
2023-03-25T14:11:45.935Z,7.60
2023-03-25T14:14:19.005Z,7.60
2023-03-25T14:16:50.663Z,7.60
2023-03-25T14:19:26.000Z,7.50
2023-03-25T14:21:53.591Z,7.50
2023-03-25T14:24:28.434Z,7.50
2023-03-25T14:27:07.460Z,7.60
2023-03-25T14:29:41.469Z,7.60
2023-03-25T14:32:17.640Z,7.60
2023-03-25T14:34:52.059Z,7.50
2023-03-25T14:37:29.664Z,7.50
2023-03-25T14:40:07.240Z,7.40
2023-03-25T14:42:58.882Z,7.40
2023-03-25T14:45:35.498Z,7.30
2023-03-25T14:48:19.477Z,7.20
2023-03-25T14:51:17.498Z,7.10
2023-03-25T14:54:00.025Z,7.10
2023-03-25T14:56:36.786Z,6.90
2023-03-25T14:59:29.117Z,6.90
2023-03-25T15:02:03.974Z,6.80
2023-03-25T15:04:38.453Z,6.80
2023-03-25T15:07:16.316Z,6.80
2023-03-25T15:09:52.582Z,6.80
2023-03-25T15:12:24.164Z,6.70
2023-03-25T15:14:56.897Z,6.70
2023-03-25T15:17:53.202Z,6.70
2023-03-25T15:20:22.851Z,6.70
2023-03-25T15:23:27.322Z,6.70
2023-03-25T15:25:56.539Z,6.60
2023-03-25T15:28:42.599Z,6.50
2023-03-25T15:31:26.488Z,6.40
2023-03-25T15:34:22.336Z,6.40
2023-03-25T15:37:07.072Z,6.40
2023-03-25T15:40:08.414Z,6.20
2023-03-25T15:42:43.093Z,6.00
2023-03-25T15:45:28.872Z,5.80
2023-03-25T15:48:24.972Z,5.70
2023-03-25T15:51:06.493Z,5.60
2023-03-25T15:54:01.891Z,5.50
2023-03-25T15:56:37.041Z,5.40
2023-03-25T15:59:43.933Z,5.20
2023-03-25T16:02:26.830Z,5.20
2023-03-25T16:04:54.810Z,5.10
2023-03-25T16:07:26.272Z,5.10
2023-03-25T16:09:55.503Z,5.10
2023-03-25T16:12:25.218Z,5.00
2023-03-25T16:14:52.876Z,4.90
2023-03-25T16:17:22.236Z,4.80
2023-03-25T16:19:58.311Z,4.70
2023-03-25T16:22:32.039Z,4.70
2023-03-25T16:25:02.771Z,4.50
2023-03-25T16:27:33.920Z,4.30
2023-03-25T16:30:00.811Z,4.20
2023-03-25T16:32:35.950Z,4.10
2023-03-25T16:35:04.727Z,4.00
2023-03-25T16:37:34.120Z,3.90
2023-03-25T16:40:06.678Z,3.70
2023-03-25T16:42:34.618Z,3.70
2023-03-25T16:45:05.966Z,3.50
2023-03-25T16:47:33.579Z,3.40
2023-03-25T16:50:02.819Z,3.30
2023-03-25T16:52:33.224Z,3.30
2023-03-25T16:55:04.893Z,3.20
2023-03-25T16:57:39.177Z,3.10
2023-03-25T17:00:18.047Z,3.00
2023-03-25T17:02:48.535Z,3.00
2023-03-25T17:05:21.440Z,3.00
2023-03-25T17:07:58.339Z,2.80
2023-03-25T17:10:28.932Z,2.80
2023-03-25T17:12:57.679Z,2.90
2023-03-25T17:15:26.158Z,2.80
2023-03-25T17:18:00.214Z,2.70
2023-03-25T17:20:45.020Z,2.50
2023-03-25T17:23:18.103Z,2.40
2023-03-25T17:26:01.617Z,2.30
2023-03-25T17:28:45.856Z,2.20
2023-03-25T17:31:30.559Z,2.20
2023-03-25T17:34:04.166Z,2.20
2023-03-25T17:36:32.705Z,2.20
2023-03-25T17:39:03.805Z,2.20
2023-03-25T17:41:37.092Z,2.20
2023-03-25T17:44:04.678Z,2.20
2023-03-25T17:46:32.063Z,2.00
2023-03-25T17:49:00.019Z,1.90
2023-03-25T17:51:29.408Z,1.90
2023-03-25T17:53:56.419Z,1.90
2023-03-25T17:56:28.252Z,1.60
2023-03-25T17:59:00.410Z,1.70
2023-03-25T18:01:28.180Z,1.60
2023-03-25T18:03:55.343Z,1.60
2023-03-25T18:06:22.673Z,1.50
2023-03-25T18:08:50.266Z,1.50
2023-03-25T18:11:17.173Z,1.50
2023-03-25T18:13:47.999Z,1.50
2023-03-25T18:16:20.994Z,1.40
2023-03-25T18:18:48.880Z,1.40
2023-03-25T18:21:17.494Z,1.40
2023-03-25T18:23:47.819Z,1.40
2023-03-25T18:26:17.617Z,1.40
2023-03-25T18:28:45.743Z,1.40
2023-03-25T18:31:17.295Z,1.40
2023-03-25T18:33:46.230Z,1.40
2023-03-25T18:36:13.343Z,1.40
2023-03-25T18:38:40.786Z,1.30
2023-03-25T18:41:08.386Z,1.20
2023-03-25T18:43:35.419Z,1.20
2023-03-25T18:46:02.415Z,1.30
2023-03-25T18:48:29.349Z,1.30
2023-03-25T18:51:00.169Z,1.30
2023-03-25T18:53:29.627Z,1.20
2023-03-25T18:56:00.233Z,1.20
2023-03-25T18:58:33.166Z,1.20
2023-03-25T19:01:01.706Z,1.10
2023-03-25T19:03:38.592Z,1.10
2023-03-25T19:06:08.621Z,1.20
2023-03-25T19:08:36.926Z,1.20
2023-03-25T19:11:16.061Z,1.20
2023-03-25T19:13:47.589Z,1.10
2023-03-25T19:16:14.524Z,1.10
2023-03-25T19:18:41.515Z,1.10
2023-03-25T19:21:08.912Z,1.00
2023-03-25T19:23:36.545Z,1.10
2023-03-25T19:26:04.774Z,1.00
2023-03-25T19:28:31.820Z,0.90
2023-03-25T19:31:02.225Z,0.90
2023-03-25T19:33:31.494Z,0.90
2023-03-25T19:36:01.759Z,0.90
2023-03-25T19:38:30.126Z,0.90
2023-03-25T19:41:12.213Z,0.90
2023-03-25T19:43:39.363Z,0.80
2023-03-25T19:46:07.175Z,0.90
2023-03-25T19:48:34.945Z,0.90
2023-03-25T19:51:02.486Z,0.80
2023-03-25T19:53:29.617Z,0.80
2023-03-25T19:55:57.053Z,0.80
2023-03-25T19:58:24.716Z,0.70
2023-03-25T20:00:53.080Z,0.80
2023-03-25T20:03:22.700Z,0.70
2023-03-25T20:05:56.170Z,0.70
2023-03-25T20:08:23.473Z,0.70
2023-03-25T20:10:50.652Z,0.70
2023-03-25T20:13:17.955Z,0.60
2023-03-25T20:15:44.857Z,0.60
2023-03-25T20:18:11.902Z,0.50
2023-03-25T20:20:40.533Z,0.50
2023-03-25T20:23:07.891Z,0.40
2023-03-25T20:25:35.123Z,0.50
2023-03-25T20:28:02.085Z,0.50
2023-03-25T20:30:29.059Z,0.40
2023-03-25T20:32:55.969Z,0.40
2023-03-25T20:35:22.948Z,0.40
2023-03-25T20:37:52.052Z,0.40
2023-03-25T20:40:23.443Z,0.30
2023-03-25T20:42:54.915Z,0.30
2023-03-25T20:45:21.827Z,0.30
2023-03-25T20:47:48.767Z,0.20
2023-03-25T20:50:16.634Z,0.30
2023-03-25T20:52:44.873Z,0.30
2023-03-25T20:55:12.491Z,0.30
2023-03-25T20:57:39.865Z,0.30
2023-03-25T21:00:07.999Z,0.30
2023-03-25T21:02:35.309Z,0.30
2023-03-25T21:05:03.665Z,0.30
2023-03-25T21:07:32.203Z,0.40
2023-03-25T21:09:59.703Z,0.30
2023-03-25T21:12:40.424Z,0.30
2023-03-25T21:15:10.283Z,0.30
2023-03-25T21:17:37.423Z,0.20
2023-03-25T21:20:08.381Z,0.10
2023-03-25T21:22:42.737Z,0.20
2023-03-25T21:25:10.728Z,0.10
2023-03-25T21:27:38.640Z,0.10
2023-03-25T21:30:09.611Z,0.10
2023-03-25T21:32:39.314Z,0.10
2023-03-25T21:35:07.892Z,0.00
2023-03-25T21:37:38.571Z,0.00
2023-03-25T21:40:08.463Z,0.00
2023-03-25T21:42:38.537Z,0.00
2023-03-25T21:45:07.758Z,-0.10
2023-03-25T21:47:36.170Z,-0.10
2023-03-25T21:50:06.213Z,-0.20
2023-03-25T21:52:33.817Z,-0.20
2023-03-25T21:55:00.702Z,-0.20
2023-03-25T21:57:27.717Z,-0.20
2023-03-25T21:59:55.327Z,-0.10
2023-03-25T22:02:22.714Z,-0.10
2023-03-25T22:04:49.721Z,-0.10
2023-03-25T22:07:16.588Z,0.00
2023-03-25T22:09:43.533Z,-0.10
2023-03-25T22:12:10.427Z,-0.10
2023-03-25T22:14:37.878Z,-0.10
2023-03-25T22:17:04.893Z,0.00
2023-03-25T22:19:31.956Z,-0.10
2023-03-25T22:21:58.815Z,-0.20
2023-03-25T22:24:25.817Z,-0.20
2023-03-25T22:26:52.684Z,-0.10
2023-03-25T22:29:19.546Z,-0.20
2023-03-25T22:31:46.644Z,-0.20
2023-03-25T22:34:15.707Z,-0.30
2023-03-25T22:36:49.674Z,-0.30
2023-03-25T22:39:20.893Z,-0.30
2023-03-25T22:41:48.161Z,-0.30
2023-03-25T22:44:17.085Z,-0.20
2023-03-25T22:46:45.493Z,-0.20
2023-03-25T22:49:12.799Z,-0.20
2023-03-25T22:51:39.735Z,-0.30
2023-03-25T22:54:07.501Z,-0.40
2023-03-25T22:56:34.434Z,-0.50
2023-03-25T22:59:05.893Z,-0.50
2023-03-25T23:01:34.483Z,-0.60
2023-03-25T23:04:01.589Z,-0.60
2023-03-25T23:06:29.992Z,-0.50
2023-03-25T23:08:58.245Z,-0.50
2023-03-25T23:11:28.011Z,-0.50
2023-03-25T23:14:01.008Z,-0.50
2023-03-25T23:16:30.889Z,-0.50
2023-03-25T23:18:58.235Z,-0.50
2023-03-25T23:21:28.597Z,-0.50
2023-03-25T23:23:58.111Z,-0.50
2023-03-25T23:26:34.420Z,-0.60
2023-03-25T23:29:03.182Z,-0.60
2023-03-25T23:31:34.169Z,-0.70
2023-03-25T23:34:04.482Z,-0.70
2023-03-25T23:36:34.442Z,-0.70
2023-03-25T23:39:02.487Z,-0.80
2023-03-25T23:41:29.804Z,-0.80
2023-03-25T23:43:56.898Z,-0.70
2023-03-25T23:46:25.533Z,-0.70
2023-03-25T23:49:02.142Z,-0.80
2023-03-25T23:51:36.761Z,-0.80
2023-03-25T23:54:05.771Z,-0.80
2023-03-25T23:56:33.131Z,-0.80
2023-03-25T23:59:00.980Z,-0.80
